sensor_id;sensor_type;location;lat;lon;timestamp;pressure;altitude;pressure_sealevel;temperature;humidity
44044;BME280;29709;52.396;16.796;2023-09-19T00:00:41;100829.62;;;21.06;84.52
44044;BME280;29709;52.396;16.796;2023-09-19T00:03:56;100831.07;;;21.09;83.84
44044;BME280;29709;52.396;16.796;2023-09-19T00:07:11;100831.32;;;21.07;84.32
44044;BME280;29709;52.396;16.796;2023-09-19T00:10:25;100847.84;;;21.09;83.39
44044;BME280;29709;52.396;16.796;2023-09-19T00:13:39;100851.33;;;21.04;83.89
44044;BME280;29709;52.396;16.796;2023-09-19T00:16:53;100862.38;;;20.99;83.51
44044;BME280;29709;52.396;16.796;2023-09-19T00:20:08;100864.63;;;20.90;83.75
44044;BME280;29709;52.396;16.796;2023-09-19T00:23:25;100865.59;;;20.84;84.79
44044;BME280;29709;52.396;16.796;2023-09-19T00:26:41;100864.94;;;20.82;85.22
44044;BME280;29709;52.396;16.796;2023-09-19T00:29:54;100861.91;;;20.84;86.49
44044;BME280;29709;52.396;16.796;2023-09-19T00:33:07;100848.42;;;20.81;85.13
44044;BME280;29709;52.396;16.796;2023-09-19T00:36:20;100857.97;;;20.73;85.55
44044;BME280;29709;52.396;16.796;2023-09-19T00:39:35;100867.30;;;20.67;86.11
44044;BME280;29709;52.396;16.796;2023-09-19T00:42:49;100844.10;;;20.66;86.19
44044;BME280;29709;52.396;16.796;2023-09-19T00:46:03;100844.48;;;20.70;85.92
44044;BME280;29709;52.396;16.796;2023-09-19T00:49:19;100847.64;;;20.73;85.93
44044;BME280;29709;52.396;16.796;2023-09-19T00:52:36;100844.41;;;20.77;86.01
44044;BME280;29709;52.396;16.796;2023-09-19T00:55:52;100850.84;;;20.77;86.68
44044;BME280;29709;52.396;16.796;2023-09-19T00:59:05;100832.75;;;20.80;86.90
44044;BME280;29709;52.396;16.796;2023-09-19T01:02:19;100843.45;;;20.83;87.85
44044;BME280;29709;52.396;16.796;2023-09-19T01:05:36;100838.51;;;20.85;86.46
44044;BME280;29709;52.396;16.796;2023-09-19T01:08:49;100841.05;;;20.86;86.71
44044;BME280;29709;52.396;16.796;2023-09-19T01:12:04;100839.48;;;20.90;86.50
44044;BME280;29709;52.396;16.796;2023-09-19T01:15:28;100840.50;;;20.96;85.43
44044;BME280;29709;52.396;16.796;2023-09-19T01:19:22;100850.18;;;20.93;86.46
44044;BME280;29709;52.396;16.796;2023-09-19T01:22:21;100840.83;;;20.88;85.93
44044;BME280;29709;52.396;16.796;2023-09-19T01:32:26;100838.35;;;20.61;87.37
44044;BME280;29709;52.396;16.796;2023-09-19T01:35:40;100829.90;;;20.68;88.44
44044;BME280;29709;52.396;16.796;2023-09-19T01:38:53;100818.49;;;20.69;87.34
44044;BME280;29709;52.396;16.796;2023-09-19T01:49:10;100803.12;;;20.79;87.41
44044;BME280;29709;52.396;16.796;2023-09-19T01:52:28;100815.62;;;20.76;87.11
44044;BME280;29709;52.396;16.796;2023-09-19T01:55:46;100820.97;;;20.78;86.97
44044;BME280;29709;52.396;16.796;2023-09-19T01:59:11;100825.46;;;20.79;87.25
44044;BME280;29709;52.396;16.796;2023-09-19T02:02:27;100830.04;;;20.73;89.10
44044;BME280;29709;52.396;16.796;2023-09-19T02:05:48;100816.31;;;20.71;87.72
44044;BME280;29709;52.396;16.796;2023-09-19T02:09:04;100820.60;;;20.74;89.48
44044;BME280;29709;52.396;16.796;2023-09-19T02:12:17;100815.02;;;20.74;87.83
44044;BME280;29709;52.396;16.796;2023-09-19T02:15:31;100817.16;;;20.72;89.74
44044;BME280;29709;52.396;16.796;2023-09-19T02:18:48;100820.80;;;20.72;87.23
44044;BME280;29709;52.396;16.796;2023-09-19T02:22:03;100820.68;;;20.67;89.13
44044;BME280;29709;52.396;16.796;2023-09-19T02:25:22;100829.29;;;20.66;87.48
44044;BME280;29709;52.396;16.796;2023-09-19T02:28:36;100824.79;;;20.65;87.41
44044;BME280;29709;52.396;16.796;2023-09-19T02:31:49;100825.57;;;20.54;87.94
44044;BME280;29709;52.396;16.796;2023-09-19T02:35:02;100828.67;;;20.45;87.62
44044;BME280;29709;52.396;16.796;2023-09-19T02:38:17;100826.63;;;20.34;88.30
44044;BME280;29709;52.396;16.796;2023-09-19T02:41:37;100843.20;;;20.29;88.48
44044;BME280;29709;52.396;16.796;2023-09-19T02:44:50;100833.83;;;20.24;88.32
44044;BME280;29709;52.396;16.796;2023-09-19T02:48:04;100835.03;;;20.09;89.41
44044;BME280;29709;52.396;16.796;2023-09-19T02:51:17;100836.03;;;19.97;89.56
44044;BME280;29709;52.396;16.796;2023-09-19T02:54:30;100837.81;;;19.91;89.53
44044;BME280;29709;52.396;16.796;2023-09-19T02:57:53;100835.06;;;19.84;89.86
44044;BME280;29709;52.396;16.796;2023-09-19T03:01:12;100837.68;;;19.79;89.98
44044;BME280;29709;52.396;16.796;2023-09-19T03:04:26;100831.94;;;19.74;90.51
44044;BME280;29709;52.396;16.796;2023-09-19T03:07:41;100834.78;;;19.68;91.24
44044;BME280;29709;52.396;16.796;2023-09-19T03:10:55;100837.18;;;19.64;90.05
44044;BME280;29709;52.396;16.796;2023-09-19T03:14:09;100832.49;;;19.58;90.35
44044;BME280;29709;52.396;16.796;2023-09-19T03:17:23;100834.01;;;19.54;91.03
44044;BME280;29709;52.396;16.796;2023-09-19T03:20:36;100829.28;;;19.54;90.03
44044;BME280;29709;52.396;16.796;2023-09-19T03:23:51;100820.54;;;19.51;90.77
44044;BME280;29709;52.396;16.796;2023-09-19T03:27:04;100815.39;;;19.48;91.02
44044;BME280;29709;52.396;16.796;2023-09-19T03:30:17;100807.68;;;19.50;91.10
44044;BME280;29709;52.396;16.796;2023-09-19T03:33:31;100815.19;;;19.49;90.82
44044;BME280;29709;52.396;16.796;2023-09-19T03:36:46;100806.17;;;19.47;91.64
44044;BME280;29709;52.396;16.796;2023-09-19T03:39:59;100794.83;;;19.49;92.14
44044;BME280;29709;52.396;16.796;2023-09-19T03:43:18;100792.23;;;19.47;91.01
44044;BME280;29709;52.396;16.796;2023-09-19T03:46:32;100793.09;;;19.48;90.19
44044;BME280;29709;52.396;16.796;2023-09-19T03:49:46;100797.64;;;19.42;90.44
44044;BME280;29709;52.396;16.796;2023-09-19T03:52:59;100808.41;;;19.39;90.80
44044;BME280;29709;52.396;16.796;2023-09-19T03:56:12;100809.92;;;19.35;92.26
44044;BME280;29709;52.396;16.796;2023-09-19T03:59:25;100811.23;;;19.32;91.27
44044;BME280;29709;52.396;16.796;2023-09-19T04:02:40;100814.69;;;19.27;91.99
44044;BME280;29709;52.396;16.796;2023-09-19T04:05:53;100811.50;;;19.24;93.48
44044;BME280;29709;52.396;16.796;2023-09-19T04:09:07;100800.75;;;19.27;91.82
44044;BME280;29709;52.396;16.796;2023-09-19T04:12:21;100810.19;;;19.26;91.58
44044;BME280;29709;52.396;16.796;2023-09-19T04:15:34;100817.93;;;19.24;91.75
44044;BME280;29709;52.396;16.796;2023-09-19T04:18:47;100808.09;;;19.22;91.84
44044;BME280;29709;52.396;16.796;2023-09-19T04:22:00;100800.62;;;19.16;91.74
44044;BME280;29709;52.396;16.796;2023-09-19T04:25:14;100810.31;;;19.07;92.50
44044;BME280;29709;52.396;16.796;2023-09-19T04:28:27;100820.41;;;19.08;92.82
44044;BME280;29709;52.396;16.796;2023-09-19T04:31:44;100834.54;;;19.06;92.36
44044;BME280;29709;52.396;16.796;2023-09-19T04:34:58;100816.77;;;19.07;92.83
44044;BME280;29709;52.396;16.796;2023-09-19T04:38:18;100814.16;;;19.12;92.76
44044;BME280;29709;52.396;16.796;2023-09-19T04:41:32;100814.32;;;19.17;92.86
44044;BME280;29709;52.396;16.796;2023-09-19T04:44:47;100819.46;;;19.20;92.03
44044;BME280;29709;52.396;16.796;2023-09-19T04:48:03;100820.55;;;19.19;92.59
44044;BME280;29709;52.396;16.796;2023-09-19T04:51:16;100825.27;;;19.19;92.74
44044;BME280;29709;52.396;16.796;2023-09-19T04:54:33;100827.13;;;19.25;92.62
44044;BME280;29709;52.396;16.796;2023-09-19T04:57:48;100833.99;;;19.29;91.91
44044;BME280;29709;52.396;16.796;2023-09-19T05:01:01;100832.72;;;19.25;91.45
44044;BME280;29709;52.396;16.796;2023-09-19T05:04:16;100840.90;;;19.20;91.63
44044;BME280;29709;52.396;16.796;2023-09-19T05:07:31;100835.76;;;19.17;91.64
44044;BME280;29709;52.396;16.796;2023-09-19T05:10:49;100830.41;;;19.15;91.50
44044;BME280;29709;52.396;16.796;2023-09-19T05:14:03;100835.12;;;19.15;92.83
44044;BME280;29709;52.396;16.796;2023-09-19T05:17:16;100831.47;;;19.21;91.63
44044;BME280;29709;52.396;16.796;2023-09-19T05:20:33;100841.92;;;19.25;91.44
44044;BME280;29709;52.396;16.796;2023-09-19T05:23:51;100840.22;;;19.24;91.77
44044;BME280;29709;52.396;16.796;2023-09-19T05:27:08;100840.22;;;19.24;91.42
44044;BME280;29709;52.396;16.796;2023-09-19T05:30:21;100843.00;;;19.24;91.72
44044;BME280;29709;52.396;16.796;2023-09-19T05:33:36;100849.20;;;19.26;91.56
44044;BME280;29709;52.396;16.796;2023-09-19T05:36:53;100851.79;;;19.28;93.00
44044;BME280;29709;52.396;16.796;2023-09-19T05:40:10;100856.45;;;19.34;91.53
44044;BME280;29709;52.396;16.796;2023-09-19T05:43:24;100851.49;;;19.36;91.24
44044;BME280;29709;52.396;16.796;2023-09-19T05:46:37;100843.98;;;19.37;91.61
44044;BME280;29709;52.396;16.796;2023-09-19T05:49:53;100842.48;;;19.41;90.91
44044;BME280;29709;52.396;16.796;2023-09-19T05:53:07;100855.73;;;19.45;90.64
44044;BME280;29709;52.396;16.796;2023-09-19T05:56:20;100856.96;;;19.56;90.38
44044;BME280;29709;52.396;16.796;2023-09-19T05:59:34;100855.22;;;19.62;90.79
44044;BME280;29709;52.396;16.796;2023-09-19T06:02:51;100848.34;;;19.64;90.54
44044;BME280;29709;52.396;16.796;2023-09-19T06:06:05;100848.67;;;19.74;90.32
44044;BME280;29709;52.396;16.796;2023-09-19T06:09:19;100850.72;;;19.85;90.16
44044;BME280;29709;52.396;16.796;2023-09-19T06:12:42;100859.80;;;19.99;89.90
44044;BME280;29709;52.396;16.796;2023-09-19T06:15:58;100862.55;;;20.06;88.92
44044;BME280;29709;52.396;16.796;2023-09-19T06:19:23;100864.72;;;20.04;88.83
44044;BME280;29709;52.396;16.796;2023-09-19T06:22:39;100878.05;;;20.02;89.33
44044;BME280;29709;52.396;16.796;2023-09-19T06:25:56;100874.41;;;20.01;88.66
44044;BME280;29709;52.396;16.796;2023-09-19T06:29:10;100884.49;;;20.02;88.84
44044;BME280;29709;52.396;16.796;2023-09-19T06:32:29;100886.81;;;20.05;88.92
44044;BME280;29709;52.396;16.796;2023-09-19T06:35:43;100882.55;;;20.03;88.46
44044;BME280;29709;52.396;16.796;2023-09-19T06:38:59;100888.80;;;19.98;89.70
44044;BME280;29709;52.396;16.796;2023-09-19T06:42:12;100897.78;;;20.00;89.16
44044;BME280;29709;52.396;16.796;2023-09-19T06:45:28;100908.85;;;20.13;88.75
44044;BME280;29709;52.396;16.796;2023-09-19T06:48:41;100910.71;;;20.19;88.59
44044;BME280;29709;52.396;16.796;2023-09-19T06:51:59;100918.41;;;20.24;88.06
44044;BME280;29709;52.396;16.796;2023-09-19T06:55:12;100918.50;;;20.36;87.86
44044;BME280;29709;52.396;16.796;2023-09-19T06:58:29;100927.26;;;20.39;87.53
44044;BME280;29709;52.396;16.796;2023-09-19T07:01:42;100928.89;;;20.54;87.42
44044;BME280;29709;52.396;16.796;2023-09-19T07:04:57;100933.82;;;20.52;87.60
44044;BME280;29709;52.396;16.796;2023-09-19T07:08:10;100938.11;;;20.54;86.85
44044;BME280;29709;52.396;16.796;2023-09-19T07:11:25;100943.55;;;20.67;86.70
44044;BME280;29709;52.396;16.796;2023-09-19T07:14:38;100946.66;;;20.78;86.39
44044;BME280;29709;52.396;16.796;2023-09-19T07:17:55;100955.26;;;20.94;86.17
44044;BME280;29709;52.396;16.796;2023-09-19T07:21:09;100947.59;;;21.08;84.76
44044;BME280;29709;52.396;16.796;2023-09-19T07:24:29;100954.81;;;21.16;84.94
44044;BME280;29709;52.396;16.796;2023-09-19T07:27:42;100962.50;;;21.39;84.88
44044;BME280;29709;52.396;16.796;2023-09-19T07:30:56;100957.57;;;21.52;83.44
44044;BME280;29709;52.396;16.796;2023-09-19T07:34:10;100968.79;;;21.64;82.61
44044;BME280;29709;52.396;16.796;2023-09-19T07:37:23;100973.70;;;21.69;82.17
44044;BME280;29709;52.396;16.796;2023-09-19T07:40:39;100976.26;;;21.70;81.57
44044;BME280;29709;52.396;16.796;2023-09-19T07:43:52;100983.27;;;21.61;81.78
44044;BME280;29709;52.396;16.796;2023-09-19T07:47:06;100977.68;;;21.61;80.71
44044;BME280;29709;52.396;16.796;2023-09-19T07:50:19;100986.02;;;21.79;81.37
44044;BME280;29709;52.396;16.796;2023-09-19T07:53:34;100988.24;;;21.89;79.05
44044;BME280;29709;52.396;16.796;2023-09-19T07:56:47;100984.08;;;21.80;79.81
44044;BME280;29709;52.396;16.796;2023-09-19T08:00:01;100988.09;;;21.84;78.99
44044;BME280;29709;52.396;16.796;2023-09-19T08:03:17;100976.34;;;21.64;79.15
44044;BME280;29709;52.396;16.796;2023-09-19T08:06:31;100984.25;;;21.67;78.22
44044;BME280;29709;52.396;16.796;2023-09-19T08:09:45;101011.23;;;21.61;77.82
44044;BME280;29709;52.396;16.796;2023-09-19T08:13:02;101007.29;;;21.50;78.73
44044;BME280;29709;52.396;16.796;2023-09-19T08:16:16;101007.13;;;21.45;77.86
44044;BME280;29709;52.396;16.796;2023-09-19T08:19:34;101018.38;;;21.57;78.88
44044;BME280;29709;52.396;16.796;2023-09-19T08:22:52;101018.45;;;21.69;76.74
44044;BME280;29709;52.396;16.796;2023-09-19T08:26:07;101030.34;;;21.64;75.82
44044;BME280;29709;52.396;16.796;2023-09-19T08:29:22;101019.02;;;21.59;75.13
44044;BME280;29709;52.396;16.796;2023-09-19T08:32:42;101026.50;;;21.47;74.65
44044;BME280;29709;52.396;16.796;2023-09-19T08:38:19;101039.59;;;21.46;74.91
44044;BME280;29709;52.396;16.796;2023-09-19T08:41:33;101037.81;;;21.52;74.94
44044;BME280;29709;52.396;16.796;2023-09-19T08:44:46;101038.97;;;21.63;73.84
44044;BME280;29709;52.396;16.796;2023-09-19T08:51:28;101041.02;;;21.85;72.58
44044;BME280;29709;52.396;16.796;2023-09-19T08:54:45;101033.76;;;21.96;72.43
44044;BME280;29709;52.396;16.796;2023-09-19T08:58:04;101045.55;;;21.98;72.18
44044;BME280;29709;52.396;16.796;2023-09-19T09:01:21;101033.62;;;22.09;70.49
44044;BME280;29709;52.396;16.796;2023-09-19T09:04:41;101031.57;;;21.98;70.11
44044;BME280;29709;52.396;16.796;2023-09-19T09:07:56;101040.12;;;22.03;70.17
44044;BME280;29709;52.396;16.796;2023-09-19T09:11:11;101042.37;;;22.13;70.56
44044;BME280;29709;52.396;16.796;2023-09-19T09:14:24;101047.00;;;22.19;69.53
44044;BME280;29709;52.396;16.796;2023-09-19T09:17:38;101050.83;;;22.36;69.40
44044;BME280;29709;52.396;16.796;2023-09-19T09:20:51;101051.70;;;22.48;68.36
44044;BME280;29709;52.396;16.796;2023-09-19T09:27:33;101062.50;;;22.87;67.39
44044;BME280;29709;52.396;16.796;2023-09-19T09:30:47;101064.09;;;22.94;65.91
44044;BME280;29709;52.396;16.796;2023-09-19T09:34:01;101068.57;;;23.19;64.86
44044;BME280;29709;52.396;16.796;2023-09-19T09:37:15;101079.78;;;23.30;62.75
44044;BME280;29709;52.396;16.796;2023-09-19T09:51:07;101101.67;;;22.63;62.62
44044;BME280;29709;52.396;16.796;2023-09-19T09:54:22;101110.76;;;22.47;61.62
44044;BME280;29709;52.396;16.796;2023-09-19T09:57:35;101111.91;;;22.28;62.57
44044;BME280;29709;52.396;16.796;2023-09-19T10:00:53;101119.34;;;22.22;61.74
44044;BME280;29709;52.396;16.796;2023-09-19T10:04:10;101125.09;;;22.09;61.18
44044;BME280;29709;52.396;16.796;2023-09-19T10:07:30;101124.64;;;22.12;61.77
44044;BME280;29709;52.396;16.796;2023-09-19T10:10:56;101126.92;;;22.33;60.93
44044;BME280;29709;52.396;16.796;2023-09-19T10:14:20;101125.30;;;22.26;61.03
44044;BME280;29709;52.396;16.796;2023-09-19T10:17:36;101119.74;;;22.37;60.63
44044;BME280;29709;52.396;16.796;2023-09-19T10:20:53;101112.32;;;22.31;60.20
44044;BME280;29709;52.396;16.796;2023-09-19T10:24:08;101123.40;;;22.38;61.08
44044;BME280;29709;52.396;16.796;2023-09-19T10:27:22;101102.12;;;22.48;59.78
44044;BME280;29709;52.396;16.796;2023-09-19T10:30:43;101096.19;;;22.68;58.86
44044;BME280;29709;52.396;16.796;2023-09-19T10:34:02;101104.04;;;23.13;58.66
44044;BME280;29709;52.396;16.796;2023-09-19T10:37:17;101099.53;;;23.47;56.28
44044;BME280;29709;52.396;16.796;2023-09-19T10:40:37;101093.55;;;23.67;55.39
44044;BME280;29709;52.396;16.796;2023-09-19T10:43:57;101106.31;;;23.75;53.40
44044;BME280;29709;52.396;16.796;2023-09-19T10:47:13;101112.80;;;23.52;53.55
44044;BME280;29709;52.396;16.796;2023-09-19T10:50:31;101124.39;;;23.44;54.02
44044;BME280;29709;52.396;16.796;2023-09-19T10:53:51;101136.62;;;23.38;51.51
44044;BME280;29709;52.396;16.796;2023-09-19T10:57:06;101132.09;;;23.13;51.73
44044;BME280;29709;52.396;16.796;2023-09-19T11:00:22;101130.02;;;23.09;51.80
44044;BME280;29709;52.396;16.796;2023-09-19T11:03:39;101152.10;;;23.28;51.17
44044;BME280;29709;52.396;16.796;2023-09-19T11:07:09;101141.85;;;23.46;51.28
44044;BME280;29709;52.396;16.796;2023-09-19T11:20:46;101149.91;;;23.66;50.14
44044;BME280;29709;52.396;16.796;2023-09-19T11:27:35;101159.05;;;23.38;50.66
44044;BME280;29709;52.396;16.796;2023-09-19T11:30:49;101168.93;;;23.17;50.71
44044;BME280;29709;52.396;16.796;2023-09-19T11:47:41;101148.63;;;23.85;49.70
44044;BME280;29709;52.396;16.796;2023-09-19T11:50:57;101147.87;;;24.01;49.85
44044;BME280;29709;52.396;16.796;2023-09-19T11:54:12;101146.38;;;24.10;47.34
44044;BME280;29709;52.396;16.796;2023-09-19T11:57:34;101146.38;;;24.10;47.47
44044;BME280;29709;52.396;16.796;2023-09-19T12:00:53;101143.78;;;24.21;46.29
44044;BME280;29709;52.396;16.796;2023-09-19T12:04:12;101149.14;;;24.22;45.89
44044;BME280;29709;52.396;16.796;2023-09-19T12:07:28;101148.29;;;24.22;46.85
44044;BME280;29709;52.396;16.796;2023-09-19T12:10:50;101138.84;;;24.28;46.44
44044;BME280;29709;52.396;16.796;2023-09-19T12:14:04;101126.76;;;24.39;45.74
44044;BME280;29709;52.396;16.796;2023-09-19T12:17:18;101138.22;;;24.37;45.28
44044;BME280;29709;52.396;16.796;2023-09-19T12:20:44;101136.52;;;24.36;46.58
44044;BME280;29709;52.396;16.796;2023-09-19T12:24:09;101131.80;;;24.54;46.72
44044;BME280;29709;52.396;16.796;2023-09-19T12:27:26;101134.53;;;24.65;45.50
44044;BME280;29709;52.396;16.796;2023-09-19T12:30:41;101137.86;;;24.62;45.24
44044;BME280;29709;52.396;16.796;2023-09-19T12:33:54;101128.06;;;24.65;45.67
44044;BME280;29709;52.396;16.796;2023-09-19T12:37:13;101131.87;;;24.59;44.96
44044;BME280;29709;52.396;16.796;2023-09-19T12:40:35;101141.39;;;24.41;44.86
44044;BME280;29709;52.396;16.796;2023-09-19T12:43:54;101132.52;;;24.32;45.22
44044;BME280;29709;52.396;16.796;2023-09-19T12:47:11;101134.96;;;24.29;45.32
44044;BME280;29709;52.396;16.796;2023-09-19T12:50:28;101136.52;;;24.36;45.43
44044;BME280;29709;52.396;16.796;2023-09-19T12:53:43;101139.92;;;24.38;45.74
44044;BME280;29709;52.396;16.796;2023-09-19T12:57:01;101135.07;;;24.34;44.34
44044;BME280;29709;52.396;16.796;2023-09-19T13:00:15;101134.75;;;24.18;44.55
44044;BME280;29709;52.396;16.796;2023-09-19T13:03:30;101133.52;;;24.14;45.08
44044;BME280;29709;52.396;16.796;2023-09-19T13:06:52;101137.58;;;24.07;45.61
44044;BME280;29709;52.396;16.796;2023-09-19T13:10:07;101136.84;;;24.11;45.44
44044;BME280;29709;52.396;16.796;2023-09-19T13:13:23;101138.84;;;24.28;45.19
44044;BME280;29709;52.396;16.796;2023-09-19T13:23:42;101140.12;;;24.48;44.58
44044;BME280;29709;52.396;16.796;2023-09-19T13:26:56;101134.50;;;24.48;45.17
44044;BME280;29709;52.396;16.796;2023-09-19T13:30:12;101135.86;;;24.46;45.19
44044;BME280;29709;52.396;16.796;2023-09-19T13:33:26;101146.65;;;24.37;46.02
44044;BME280;29709;52.396;16.796;2023-09-19T13:36:39;101150.22;;;24.33;46.31
44044;BME280;29709;52.396;16.796;2023-09-19T13:39:53;101143.60;;;24.27;46.48
44044;BME280;29709;52.396;16.796;2023-09-19T13:43:06;101147.73;;;24.08;47.05
44044;BME280;29709;52.396;16.796;2023-09-19T13:46:21;101153.61;;;23.95;47.60
44044;BME280;29709;52.396;16.796;2023-09-19T13:49:40;101136.13;;;24.04;48.08
44044;BME280;29709;52.396;16.796;2023-09-19T13:52:54;101145.27;;;24.11;47.68
44044;BME280;29709;52.396;16.796;2023-09-19T13:56:08;101139.70;;;24.00;47.35
44044;BME280;29709;52.396;16.796;2023-09-19T13:59:21;101147.91;;;23.89;48.18
44044;BME280;29709;52.396;16.796;2023-09-19T14:02:36;101141.57;;;23.82;48.31
44044;BME280;29709;52.396;16.796;2023-09-19T14:05:49;101140.75;;;23.70;48.18
44044;BME280;29709;52.396;16.796;2023-09-19T14:09:04;101140.87;;;23.64;48.06
44044;BME280;29709;52.396;16.796;2023-09-19T14:12:17;101139.03;;;23.57;47.64
44044;BME280;29709;52.396;16.796;2023-09-19T14:15:31;101143.41;;;23.53;46.51
44044;BME280;29709;52.396;16.796;2023-09-19T14:18:47;101138.66;;;23.42;45.50
44044;BME280;29709;52.396;16.796;2023-09-19T14:22:02;101132.96;;;23.37;46.17
44044;BME280;29709;52.396;16.796;2023-09-19T14:25:20;101134.75;;;23.43;45.61
44044;BME280;29709;52.396;16.796;2023-09-19T14:28:34;101143.18;;;23.43;44.73
44044;BME280;29709;52.396;16.796;2023-09-19T14:31:47;101147.22;;;23.47;44.60
44044;BME280;29709;52.396;16.796;2023-09-19T14:35:02;101146.46;;;23.52;43.61
44044;BME280;29709;52.396;16.796;2023-09-19T14:38:16;101156.09;;;23.44;42.69
44044;BME280;29709;52.396;16.796;2023-09-19T14:41:30;101158.06;;;23.32;43.50
44044;BME280;29709;52.396;16.796;2023-09-19T14:44:44;101164.66;;;23.26;42.98
44044;BME280;29709;52.396;16.796;2023-09-19T14:48:00;101163.67;;;23.20;42.86
44044;BME280;29709;52.396;16.796;2023-09-19T14:51:18;101162.57;;;23.10;43.13
44044;BME280;29709;52.396;16.796;2023-09-19T14:54:32;101161.95;;;23.08;43.48
44044;BME280;29709;52.396;16.796;2023-09-19T14:57:49;101163.05;;;23.07;43.23
44044;BME280;29709;52.396;16.796;2023-09-19T15:01:07;101169.77;;;23.06;43.99
44044;BME280;29709;52.396;16.796;2023-09-19T15:04:21;101165.97;;;23.00;43.88
44044;BME280;29709;52.396;16.796;2023-09-19T15:07:37;101154.88;;;22.93;44.22
44044;BME280;29709;52.396;16.796;2023-09-19T15:10:52;101163.46;;;22.80;43.64
44044;BME280;29709;52.396;16.796;2023-09-19T15:14:06;101163.83;;;22.72;43.22
44044;BME280;29709;52.396;16.796;2023-09-19T15:17:19;101172.34;;;22.65;43.66
44044;BME280;29709;52.396;16.796;2023-09-19T15:20:33;101166.73;;;22.65;43.79
44044;BME280;29709;52.396;16.796;2023-09-19T15:23:47;101165.87;;;22.65;43.90
44044;BME280;29709;52.396;16.796;2023-09-19T15:27:00;101168.91;;;22.63;44.00
44044;BME280;29709;52.396;16.796;2023-09-19T15:30:14;101177.65;;;22.55;43.84
44044;BME280;29709;52.396;16.796;2023-09-19T15:33:29;101174.70;;;22.50;43.82
44044;BME280;29709;52.396;16.796;2023-09-19T15:36:43;101168.61;;;22.41;44.25
44044;BME280;29709;52.396;16.796;2023-09-19T15:39:58;101175.50;;;22.39;44.61
44044;BME280;29709;52.396;16.796;2023-09-19T15:43:11;101168.20;;;22.38;44.55
44044;BME280;29709;52.396;16.796;2023-09-19T15:46:25;101173.20;;;22.36;44.58
44044;BME280;29709;52.396;16.796;2023-09-19T15:49:42;101179.65;;;22.36;44.79
44044;BME280;29709;52.396;16.796;2023-09-19T15:52:56;101180.49;;;22.37;45.14
44044;BME280;29709;52.396;16.796;2023-09-19T15:56:11;101182.32;;;22.31;44.66
44044;BME280;29709;52.396;16.796;2023-09-19T15:59:24;101191.17;;;22.28;45.25
44044;BME280;29709;52.396;16.796;2023-09-19T16:02:38;101190.02;;;22.17;45.54
44044;BME280;29709;52.396;16.796;2023-09-19T16:05:51;101190.98;;;22.11;45.58
44044;BME280;29709;52.396;16.796;2023-09-19T16:09:05;101199.89;;;22.02;45.72
44044;BME280;29709;52.396;16.796;2023-09-19T16:12:18;101191.73;;;22.00;46.07
44044;BME280;29709;52.396;16.796;2023-09-19T16:15:32;101197.64;;;21.92;46.04
44044;BME280;29709;52.396;16.796;2023-09-19T16:18:55;101201.98;;;21.88;45.78
44044;BME280;29709;52.396;16.796;2023-09-19T16:22:15;101201.84;;;21.83;46.42
44044;BME280;29709;52.396;16.796;2023-09-19T16:25:29;101200.43;;;21.74;46.56
44044;BME280;29709;52.396;16.796;2023-09-19T16:28:45;101201.58;;;21.66;46.82
44044;BME280;29709;52.396;16.796;2023-09-19T16:31:58;101204.23;;;21.61;47.18
44044;BME280;29709;52.396;16.796;2023-09-19T16:35:12;101200.88;;;21.52;47.57
44044;BME280;29709;52.396;16.796;2023-09-19T16:38:26;101197.09;;;21.47;47.61
44044;BME280;29709;52.396;16.796;2023-09-19T16:41:40;101205.77;;;21.39;48.15
44044;BME280;29709;52.396;16.796;2023-09-19T16:44:55;101209.46;;;21.32;48.70
44044;BME280;29709;52.396;16.796;2023-09-19T16:48:09;101215.13;;;21.26;48.82
44044;BME280;29709;52.396;16.796;2023-09-19T16:51:22;101215.61;;;21.16;49.03
44044;BME280;29709;52.396;16.796;2023-09-19T16:54:35;101219.15;;;21.05;49.52
44044;BME280;29709;52.396;16.796;2023-09-19T16:57:53;101223.73;;;20.93;50.56
44044;BME280;29709;52.396;16.796;2023-09-19T17:01:07;101220.15;;;20.86;51.10
44044;BME280;29709;52.396;16.796;2023-09-19T17:04:24;101222.52;;;20.82;50.92
44044;BME280;29709;52.396;16.796;2023-09-19T17:07:38;101230.96;;;20.75;51.22
44044;BME280;29709;52.396;16.796;2023-09-19T17:11:00;101228.68;;;20.59;51.54
44044;BME280;29709;52.396;16.796;2023-09-19T17:14:14;101231.80;;;20.44;51.31
44044;BME280;29709;52.396;16.796;2023-09-19T17:17:28;101237.44;;;20.25;52.57
44044;BME280;29709;52.396;16.796;2023-09-19T17:20:41;101232.34;;;20.08;52.99
44044;BME280;29709;52.396;16.796;2023-09-19T17:23:55;101238.16;;;20.00;54.16
44044;BME280;29709;52.396;16.796;2023-09-19T17:27:11;101236.90;;;19.96;53.59
44044;BME280;29709;52.396;16.796;2023-09-19T17:30:25;101236.71;;;19.84;55.36
44044;BME280;29709;52.396;16.796;2023-09-19T17:33:41;101240.81;;;19.75;55.75
44044;BME280;29709;52.396;16.796;2023-09-19T17:36:56;101241.25;;;19.72;55.77
44044;BME280;29709;52.396;16.796;2023-09-19T17:40:12;101248.13;;;19.63;55.96
44044;BME280;29709;52.396;16.796;2023-09-19T17:43:26;101237.61;;;19.45;56.74
44044;BME280;29709;52.396;16.796;2023-09-19T17:46:39;101250.48;;;19.26;58.06
44044;BME280;29709;52.396;16.796;2023-09-19T17:49:52;101252.44;;;19.19;58.65
44044;BME280;29709;52.396;16.796;2023-09-19T17:53:07;101252.20;;;19.14;58.79
44044;BME280;29709;52.396;16.796;2023-09-19T17:56:22;101250.29;;;19.08;59.66